Disclaimer

Please do not use the information listed here in-flight or in-navigation, as they are not provided to us by the airports but are provided by volunteers, so they might be outdated.

Search


Regions


Airport information page

Radio informations:
Tower (TWR) - 118.2 MHz
Ground (GND) - 121.9 MHz
Approach (APP) - 125.1 MHz

Airport informations:
Latitude: 21° 13' 16.29" N
Longitude: 105° 48' 25.84" E
Elevation: 39 feet - 12 meters
Operating hours: N/A
Operating agency: Military-civil joint use airport
Timezone: UTC+7
Fuel: N/A

Runway information:
11R/29L - 12466 x 148 feet< - >3800 x 45 meters
11L/29R - 12466 x 148 feet< - >3800 x 45 meters

Recent METARs:
VVNB 190330Z 04011KT 9999 BKN015 21/18 Q1018 NOSIG
VVNB 190400Z 05011KT 9999 BKN016 21/18 Q1018 NOSIG
VVNB 190430Z 05010KT 360V070 9999 BKN017 22/18 Q1017 NOSIG

Airport on the map: